sensor_id;sensor_type;location;lat;lon;timestamp;P1;durP1;ratioP1;P2;durP2;ratioP2
53881;SDS011;39794;55.782;37.452;2024-02-26T00:02:09;4.25;;;2.42;;
53881;SDS011;39794;55.782;37.452;2024-02-26T00:04:37;6.68;;;2.90;;
53881;SDS011;39794;55.782;37.452;2024-02-26T00:07:06;6.20;;;3.28;;
53881;SDS011;39794;55.782;37.452;2024-02-26T00:09:36;5.82;;;3.00;;
53881;SDS011;39794;55.782;37.452;2024-02-26T00:12:04;5.72;;;2.95;;
53881;SDS011;39794;55.782;37.452;2024-02-26T00:14:33;3.67;;;2.47;;
53881;SDS011;39794;55.782;37.452;2024-02-26T00:17:02;14.32;;;3.47;;
53881;SDS011;39794;55.782;37.452;2024-02-26T00:19:30;4.47;;;2.78;;
53881;SDS011;39794;55.782;37.452;2024-02-26T00:21:59;4.72;;;2.90;;
53881;SDS011;39794;55.782;37.452;2024-02-26T00:24:27;6.43;;;3.00;;
53881;SDS011;39794;55.782;37.452;2024-02-26T00:26:57;7.60;;;2.97;;
53881;SDS011;39794;55.782;37.452;2024-02-26T00:29:27;6.88;;;2.42;;
53881;SDS011;39794;55.782;37.452;2024-02-26T00:31:55;5.88;;;2.72;;
53881;SDS011;39794;55.782;37.452;2024-02-26T00:34:24;5.50;;;2.80;;
53881;SDS011;39794;55.782;37.452;2024-02-26T00:36:52;7.10;;;2.70;;
53881;SDS011;39794;55.782;37.452;2024-02-26T00:39:21;4.97;;;3.08;;
53881;SDS011;39794;55.782;37.452;2024-02-26T00:41:49;4.88;;;2.90;;
53881;SDS011;39794;55.782;37.452;2024-02-26T00:44:20;5.35;;;2.75;;
53881;SDS011;39794;55.782;37.452;2024-02-26T00:46:48;7.53;;;3.63;;
53881;SDS011;39794;55.782;37.452;2024-02-26T00:49:17;4.78;;;2.30;;
53881;SDS011;39794;55.782;37.452;2024-02-26T00:51:45;6.22;;;2.60;;
53881;SDS011;39794;55.782;37.452;2024-02-26T00:54:14;6.10;;;3.33;;
53881;SDS011;39794;55.782;37.452;2024-02-26T00:56:43;4.80;;;3.05;;
53881;SDS011;39794;55.782;37.452;2024-02-26T00:59:11;4.70;;;2.63;;
53881;SDS011;39794;55.782;37.452;2024-02-26T01:01:41;4.47;;;2.80;;
53881;SDS011;39794;55.782;37.452;2024-02-26T01:04:09;6.63;;;3.05;;
53881;SDS011;39794;55.782;37.452;2024-02-26T01:06:38;7.10;;;2.78;;
53881;SDS011;39794;55.782;37.452;2024-02-26T01:09:07;6.20;;;2.80;;
53881;SDS011;39794;55.782;37.452;2024-02-26T01:11:36;5.70;;;2.58;;
53881;SDS011;39794;55.782;37.452;2024-02-26T01:14:04;7.72;;;2.72;;
53881;SDS011;39794;55.782;37.452;2024-02-26T01:16:33;4.95;;;2.45;;
53881;SDS011;39794;55.782;37.452;2024-02-26T01:19:02;5.78;;;2.40;;
53881;SDS011;39794;55.782;37.452;2024-02-26T01:21:31;4.50;;;2.53;;
53881;SDS011;39794;55.782;37.452;2024-02-26T01:23:59;4.13;;;2.30;;
53881;SDS011;39794;55.782;37.452;2024-02-26T01:26:28;5.60;;;2.28;;
53881;SDS011;39794;55.782;37.452;2024-02-26T01:28:57;4.97;;;2.63;;
53881;SDS011;39794;55.782;37.452;2024-02-26T01:31:26;4.43;;;2.28;;
53881;SDS011;39794;55.782;37.452;2024-02-26T01:33:54;4.45;;;2.53;;
53881;SDS011;39794;55.782;37.452;2024-02-26T01:36:24;5.25;;;2.45;;
53881;SDS011;39794;55.782;37.452;2024-02-26T01:38:53;4.13;;;2.50;;
53881;SDS011;39794;55.782;37.452;2024-02-26T01:41:21;5.80;;;2.42;;
53881;SDS011;39794;55.782;37.452;2024-02-26T01:43:50;4.20;;;2.30;;
53881;SDS011;39794;55.782;37.452;2024-02-26T01:46:19;8.02;;;2.55;;
53881;SDS011;39794;55.782;37.452;2024-02-26T01:48:47;5.60;;;2.72;;
53881;SDS011;39794;55.782;37.452;2024-02-26T01:51:17;4.10;;;2.08;;
53881;SDS011;39794;55.782;37.452;2024-02-26T01:53:48;7.18;;;2.83;;
53881;SDS011;39794;55.782;37.452;2024-02-26T01:56:17;4.80;;;2.72;;
53881;SDS011;39794;55.782;37.452;2024-02-26T01:58:47;3.38;;;2.28;;
53881;SDS011;39794;55.782;37.452;2024-02-26T02:01:16;5.75;;;2.25;;
53881;SDS011;39794;55.782;37.452;2024-02-26T02:03:47;6.32;;;2.85;;
53881;SDS011;39794;55.782;37.452;2024-02-26T02:06:15;4.43;;;2.40;;
53881;SDS011;39794;55.782;37.452;2024-02-26T02:08:44;6.07;;;2.35;;
53881;SDS011;39794;55.782;37.452;2024-02-26T02:11:14;5.35;;;2.40;;
53881;SDS011;39794;55.782;37.452;2024-02-26T02:13:43;4.13;;;2.15;;
53881;SDS011;39794;55.782;37.452;2024-02-26T02:16:12;3.90;;;2.40;;
53881;SDS011;39794;55.782;37.452;2024-02-26T02:18:41;4.28;;;2.25;;
53881;SDS011;39794;55.782;37.452;2024-02-26T02:21:11;5.30;;;2.50;;
53881;SDS011;39794;55.782;37.452;2024-02-26T02:23:39;4.03;;;1.90;;
53881;SDS011;39794;55.782;37.452;2024-02-26T02:26:13;2.92;;;1.95;;
53881;SDS011;39794;55.782;37.452;2024-02-26T02:28:42;1.83;;;1.48;;
53881;SDS011;39794;55.782;37.452;2024-02-26T02:31:10;3.47;;;2.20;;
53881;SDS011;39794;55.782;37.452;2024-02-26T02:33:38;3.30;;;1.90;;
53881;SDS011;39794;55.782;37.452;2024-02-26T02:36:07;2.42;;;2.17;;
53881;SDS011;39794;55.782;37.452;2024-02-26T02:38:41;3.97;;;2.45;;
53881;SDS011;39794;55.782;37.452;2024-02-26T02:41:17;4.28;;;1.80;;
53881;SDS011;39794;55.782;37.452;2024-02-26T02:43:45;8.40;;;2.20;;
53881;SDS011;39794;55.782;37.452;2024-02-26T02:46:14;4.07;;;1.88;;
53881;SDS011;39794;55.782;37.452;2024-02-26T02:48:43;2.72;;;1.80;;
53881;SDS011;39794;55.782;37.452;2024-02-26T02:51:12;3.25;;;1.85;;
53881;SDS011;39794;55.782;37.452;2024-02-26T02:53:42;4.32;;;2.35;;
53881;SDS011;39794;55.782;37.452;2024-02-26T02:56:11;4.15;;;1.75;;
53881;SDS011;39794;55.782;37.452;2024-02-26T02:58:39;7.57;;;2.13;;
53881;SDS011;39794;55.782;37.452;2024-02-26T03:01:08;5.35;;;1.90;;
53881;SDS011;39794;55.782;37.452;2024-02-26T03:03:37;2.70;;;1.90;;
53881;SDS011;39794;55.782;37.452;2024-02-26T03:06:05;4.40;;;2.00;;
53881;SDS011;39794;55.782;37.452;2024-02-26T03:08:34;2.75;;;1.90;;
53881;SDS011;39794;55.782;37.452;2024-02-26T03:11:06;2.58;;;1.60;;
53881;SDS011;39794;55.782;37.452;2024-02-26T03:13:35;5.25;;;1.77;;
53881;SDS011;39794;55.782;37.452;2024-02-26T03:16:04;4.38;;;2.38;;
53881;SDS011;39794;55.782;37.452;2024-02-26T03:18:33;3.95;;;2.05;;
53881;SDS011;39794;55.782;37.452;2024-02-26T03:21:02;8.75;;;1.90;;
53881;SDS011;39794;55.782;37.452;2024-02-26T03:23:30;2.83;;;1.85;;
53881;SDS011;39794;55.782;37.452;2024-02-26T03:26:03;5.47;;;2.03;;
53881;SDS011;39794;55.782;37.452;2024-02-26T03:28:33;2.38;;;1.40;;
53881;SDS011;39794;55.782;37.452;2024-02-26T03:31:01;3.08;;;1.90;;
53881;SDS011;39794;55.782;37.452;2024-02-26T03:33:30;2.95;;;1.60;;
53881;SDS011;39794;55.782;37.452;2024-02-26T03:35:59;2.88;;;1.85;;
53881;SDS011;39794;55.782;37.452;2024-02-26T03:38:28;3.60;;;2.00;;
53881;SDS011;39794;55.782;37.452;2024-02-26T03:40:57;3.90;;;1.70;;
53881;SDS011;39794;55.782;37.452;2024-02-26T03:43:25;4.25;;;1.75;;
53881;SDS011;39794;55.782;37.452;2024-02-26T03:45:55;4.00;;;1.88;;
53881;SDS011;39794;55.782;37.452;2024-02-26T03:48:23;5.25;;;1.75;;
53881;SDS011;39794;55.782;37.452;2024-02-26T03:50:52;2.20;;;1.60;;
53881;SDS011;39794;55.782;37.452;2024-02-26T03:53:21;3.83;;;1.85;;
53881;SDS011;39794;55.782;37.452;2024-02-26T03:55:49;3.67;;;1.88;;
53881;SDS011;39794;55.782;37.452;2024-02-26T03:58:19;5.40;;;2.08;;
53881;SDS011;39794;55.782;37.452;2024-02-26T04:00:48;3.60;;;1.98;;
53881;SDS011;39794;55.782;37.452;2024-02-26T04:03:18;2.78;;;1.80;;
53881;SDS011;39794;55.782;37.452;2024-02-26T04:05:46;3.75;;;1.70;;
53881;SDS011;39794;55.782;37.452;2024-02-26T04:08:15;4.40;;;1.55;;
53881;SDS011;39794;55.782;37.452;2024-02-26T04:10:44;3.75;;;2.10;;
53881;SDS011;39794;55.782;37.452;2024-02-26T04:13:12;4.50;;;2.08;;
53881;SDS011;39794;55.782;37.452;2024-02-26T04:15:41;2.83;;;1.65;;
53881;SDS011;39794;55.782;37.452;2024-02-26T04:18:10;4.30;;;1.70;;
53881;SDS011;39794;55.782;37.452;2024-02-26T04:20:40;2.85;;;1.60;;
53881;SDS011;39794;55.782;37.452;2024-02-26T04:23:09;1.77;;;1.58;;
53881;SDS011;39794;55.782;37.452;2024-02-26T04:25:37;2.58;;;1.15;;
53881;SDS011;39794;55.782;37.452;2024-02-26T04:28:06;4.40;;;2.03;;
53881;SDS011;39794;55.782;37.452;2024-02-26T04:30:35;3.38;;;1.90;;
53881;SDS011;39794;55.782;37.452;2024-02-26T04:33:04;4.97;;;2.20;;
53881;SDS011;39794;55.782;37.452;2024-02-26T04:35:33;9.25;;;2.80;;
53881;SDS011;39794;55.782;37.452;2024-02-26T04:38:03;5.85;;;2.63;;
53881;SDS011;39794;55.782;37.452;2024-02-26T04:40:32;3.70;;;2.25;;
53881;SDS011;39794;55.782;37.452;2024-02-26T04:43:00;4.00;;;2.40;;
53881;SDS011;39794;55.782;37.452;2024-02-26T04:45:28;4.95;;;2.20;;
53881;SDS011;39794;55.782;37.452;2024-02-26T04:47:57;4.28;;;2.40;;
53881;SDS011;39794;55.782;37.452;2024-02-26T04:50:26;5.78;;;2.00;;
53881;SDS011;39794;55.782;37.452;2024-02-26T04:52:54;4.45;;;2.05;;
53881;SDS011;39794;55.782;37.452;2024-02-26T04:55:24;3.95;;;2.20;;
53881;SDS011;39794;55.782;37.452;2024-02-26T04:57:52;4.75;;;2.00;;
53881;SDS011;39794;55.782;37.452;2024-02-26T05:00:21;4.13;;;1.77;;
53881;SDS011;39794;55.782;37.452;2024-02-26T05:02:49;3.92;;;2.30;;
53881;SDS011;39794;55.782;37.452;2024-02-26T05:05:18;4.80;;;2.63;;
53881;SDS011;39794;55.782;37.452;2024-02-26T05:07:46;4.50;;;2.50;;
53881;SDS011;39794;55.782;37.452;2024-02-26T05:10:15;14.73;;;2.60;;
53881;SDS011;39794;55.782;37.452;2024-02-26T05:12:45;5.63;;;2.55;;
53881;SDS011;39794;55.782;37.452;2024-02-26T05:15:13;4.32;;;2.72;;
53881;SDS011;39794;55.782;37.452;2024-02-26T05:17:45;3.42;;;2.30;;
53881;SDS011;39794;55.782;37.452;2024-02-26T05:20:14;4.75;;;2.30;;
53881;SDS011;39794;55.782;37.452;2024-02-26T05:22:42;7.25;;;3.00;;
53881;SDS011;39794;55.782;37.452;2024-02-26T05:25:10;5.63;;;2.88;;
53881;SDS011;39794;55.782;37.452;2024-02-26T05:27:39;7.93;;;2.70;;
53881;SDS011;39794;55.782;37.452;2024-02-26T05:30:10;6.63;;;3.00;;
53881;SDS011;39794;55.782;37.452;2024-02-26T05:32:39;5.70;;;2.60;;
53881;SDS011;39794;55.782;37.452;2024-02-26T05:35:08;5.30;;;2.80;;
53881;SDS011;39794;55.782;37.452;2024-02-26T05:37:36;5.35;;;2.83;;
53881;SDS011;39794;55.782;37.452;2024-02-26T05:40:05;6.78;;;2.70;;
53881;SDS011;39794;55.782;37.452;2024-02-26T05:42:34;5.18;;;2.78;;
53881;SDS011;39794;55.782;37.452;2024-02-26T05:45:03;5.55;;;3.20;;
53881;SDS011;39794;55.782;37.452;2024-02-26T05:47:34;6.05;;;2.83;;
53881;SDS011;39794;55.782;37.452;2024-02-26T05:50:09;5.35;;;2.88;;
53881;SDS011;39794;55.782;37.452;2024-02-26T05:52:38;6.05;;;2.80;;
53881;SDS011;39794;55.782;37.452;2024-02-26T05:55:08;4.90;;;2.72;;
53881;SDS011;39794;55.782;37.452;2024-02-26T05:57:37;8.98;;;2.90;;
53881;SDS011;39794;55.782;37.452;2024-02-26T06:00:05;7.50;;;3.13;;
53881;SDS011;39794;55.782;37.452;2024-02-26T06:02:40;6.32;;;3.47;;
53881;SDS011;39794;55.782;37.452;2024-02-26T06:05:08;13.77;;;2.97;;
53881;SDS011;39794;55.782;37.452;2024-02-26T06:07:37;8.10;;;3.50;;
53881;SDS011;39794;55.782;37.452;2024-02-26T06:10:06;7.72;;;3.30;;
53881;SDS011;39794;55.782;37.452;2024-02-26T06:12:35;5.63;;;3.13;;
53881;SDS011;39794;55.782;37.452;2024-02-26T06:15:04;4.95;;;3.20;;
53881;SDS011;39794;55.782;37.452;2024-02-26T06:17:33;5.97;;;3.40;;
53881;SDS011;39794;55.782;37.452;2024-02-26T06:20:03;6.03;;;3.53;;
53881;SDS011;39794;55.782;37.452;2024-02-26T06:22:33;6.60;;;2.88;;
53881;SDS011;39794;55.782;37.452;2024-02-26T06:25:02;9.93;;;3.25;;
53881;SDS011;39794;55.782;37.452;2024-02-26T06:27:30;4.68;;;2.70;;
53881;SDS011;39794;55.782;37.452;2024-02-26T06:29:59;6.88;;;3.42;;
53881;SDS011;39794;55.782;37.452;2024-02-26T06:32:29;8.45;;;4.40;;
53881;SDS011;39794;55.782;37.452;2024-02-26T06:34:58;6.43;;;2.95;;
53881;SDS011;39794;55.782;37.452;2024-02-26T06:37:28;8.55;;;3.78;;
53881;SDS011;39794;55.782;37.452;2024-02-26T06:39:57;9.63;;;3.42;;
53881;SDS011;39794;55.782;37.452;2024-02-26T06:42:25;7.88;;;3.55;;
53881;SDS011;39794;55.782;37.452;2024-02-26T06:44:54;6.50;;;3.53;;
53881;SDS011;39794;55.782;37.452;2024-02-26T06:47:22;5.80;;;3.35;;
53881;SDS011;39794;55.782;37.452;2024-02-26T06:49:51;9.13;;;4.10;;
53881;SDS011;39794;55.782;37.452;2024-02-26T06:52:19;6.75;;;3.17;;
53881;SDS011;39794;55.782;37.452;2024-02-26T06:54:49;5.80;;;3.08;;
53881;SDS011;39794;55.782;37.452;2024-02-26T06:57:19;5.97;;;3.35;;
53881;SDS011;39794;55.782;37.452;2024-02-26T06:59:48;6.57;;;3.42;;
53881;SDS011;39794;55.782;37.452;2024-02-26T07:02:19;7.28;;;3.08;;
53881;SDS011;39794;55.782;37.452;2024-02-26T07:04:48;6.65;;;3.83;;
53881;SDS011;39794;55.782;37.452;2024-02-26T07:07:16;9.68;;;3.45;;
53881;SDS011;39794;55.782;37.452;2024-02-26T07:09:45;12.68;;;3.70;;
53881;SDS011;39794;55.782;37.452;2024-02-26T07:12:16;5.63;;;3.42;;
53881;SDS011;39794;55.782;37.452;2024-02-26T07:14:46;8.07;;;3.20;;
53881;SDS011;39794;55.782;37.452;2024-02-26T07:17:15;7.38;;;3.17;;
53881;SDS011;39794;55.782;37.452;2024-02-26T07:19:46;9.05;;;4.88;;
53881;SDS011;39794;55.782;37.452;2024-02-26T07:22:15;8.68;;;4.88;;
53881;SDS011;39794;55.782;37.452;2024-02-26T07:24:43;9.10;;;4.03;;
53881;SDS011;39794;55.782;37.452;2024-02-26T07:27:12;5.88;;;3.70;;
53881;SDS011;39794;55.782;37.452;2024-02-26T07:29:42;9.00;;;4.28;;
53881;SDS011;39794;55.782;37.452;2024-02-26T07:32:10;7.25;;;4.00;;
53881;SDS011;39794;55.782;37.452;2024-02-26T07:34:38;8.68;;;3.90;;
53881;SDS011;39794;55.782;37.452;2024-02-26T07:37:08;6.40;;;3.85;;
53881;SDS011;39794;55.782;37.452;2024-02-26T07:39:37;6.28;;;3.45;;
53881;SDS011;39794;55.782;37.452;2024-02-26T07:42:05;6.82;;;3.67;;
53881;SDS011;39794;55.782;37.452;2024-02-26T07:44:34;7.90;;;3.97;;
53881;SDS011;39794;55.782;37.452;2024-02-26T07:47:04;8.07;;;3.67;;
53881;SDS011;39794;55.782;37.452;2024-02-26T07:49:32;9.77;;;3.90;;
53881;SDS011;39794;55.782;37.452;2024-02-26T07:52:05;7.40;;;3.78;;
53881;SDS011;39794;55.782;37.452;2024-02-26T07:54:34;6.78;;;3.50;;
53881;SDS011;39794;55.782;37.452;2024-02-26T07:57:02;8.02;;;3.20;;
53881;SDS011;39794;55.782;37.452;2024-02-26T07:59:34;9.10;;;4.45;;
53881;SDS011;39794;55.782;37.452;2024-02-26T08:02:04;6.85;;;3.95;;
53881;SDS011;39794;55.782;37.452;2024-02-26T08:04:33;7.43;;;3.90;;
53881;SDS011;39794;55.782;37.452;2024-02-26T08:07:02;7.10;;;3.80;;
53881;SDS011;39794;55.782;37.452;2024-02-26T08:09:30;7.13;;;3.83;;
53881;SDS011;39794;55.782;37.452;2024-02-26T08:11:59;11.10;;;3.90;;
53881;SDS011;39794;55.782;37.452;2024-02-26T08:14:27;10.75;;;3.67;;
53881;SDS011;39794;55.782;37.452;2024-02-26T08:16:56;9.75;;;5.05;;
53881;SDS011;39794;55.782;37.452;2024-02-26T08:19:26;8.43;;;3.65;;
53881;SDS011;39794;55.782;37.452;2024-02-26T08:21:55;8.07;;;3.75;;
53881;SDS011;39794;55.782;37.452;2024-02-26T08:24:23;9.70;;;3.85;;
53881;SDS011;39794;55.782;37.452;2024-02-26T08:26:52;7.15;;;3.50;;
53881;SDS011;39794;55.782;37.452;2024-02-26T08:29:20;7.60;;;3.80;;
53881;SDS011;39794;55.782;37.452;2024-02-26T08:31:49;16.98;;;4.05;;
53881;SDS011;39794;55.782;37.452;2024-02-26T08:34:17;10.13;;;3.80;;
53881;SDS011;39794;55.782;37.452;2024-02-26T08:36:47;5.60;;;3.80;;
53881;SDS011;39794;55.782;37.452;2024-02-26T08:39:15;7.78;;;4.25;;
53881;SDS011;39794;55.782;37.452;2024-02-26T08:41:44;7.68;;;3.90;;
53881;SDS011;39794;55.782;37.452;2024-02-26T08:44:13;7.32;;;3.20;;
53881;SDS011;39794;55.782;37.452;2024-02-26T08:46:41;8.30;;;3.75;;
53881;SDS011;39794;55.782;37.452;2024-02-26T08:49:10;7.57;;;3.92;;
53881;SDS011;39794;55.782;37.452;2024-02-26T08:51:41;8.32;;;4.05;;
53881;SDS011;39794;55.782;37.452;2024-02-26T08:54:11;9.93;;;3.95;;
53881;SDS011;39794;55.782;37.452;2024-02-26T08:56:39;9.60;;;4.43;;
53881;SDS011;39794;55.782;37.452;2024-02-26T08:59:08;6.35;;;3.75;;
53881;SDS011;39794;55.782;37.452;2024-02-26T09:01:37;6.60;;;3.55;;
53881;SDS011;39794;55.782;37.452;2024-02-26T09:04:05;9.38;;;4.05;;
53881;SDS011;39794;55.782;37.452;2024-02-26T09:06:36;11.43;;;3.58;;
53881;SDS011;39794;55.782;37.452;2024-02-26T09:09:04;5.40;;;3.22;;
53881;SDS011;39794;55.782;37.452;2024-02-26T09:11:34;7.43;;;4.25;;
53881;SDS011;39794;55.782;37.452;2024-02-26T09:14:03;8.55;;;4.50;;
53881;SDS011;39794;55.782;37.452;2024-02-26T09:16:31;11.85;;;4.45;;
53881;SDS011;39794;55.782;37.452;2024-02-26T09:19:00;7.28;;;3.85;;
53881;SDS011;39794;55.782;37.452;2024-02-26T09:21:30;7.40;;;3.53;;
53881;SDS011;39794;55.782;37.452;2024-02-26T09:23:59;9.30;;;4.82;;
53881;SDS011;39794;55.782;37.452;2024-02-26T09:26:27;6.22;;;3.28;;
53881;SDS011;39794;55.782;37.452;2024-02-26T09:28:57;6.90;;;3.45;;
53881;SDS011;39794;55.782;37.452;2024-02-26T09:31:26;6.45;;;3.70;;
53881;SDS011;39794;55.782;37.452;2024-02-26T09:33:54;9.85;;;4.05;;
53881;SDS011;39794;55.782;37.452;2024-02-26T09:36:28;11.05;;;4.10;;
53881;SDS011;39794;55.782;37.452;2024-02-26T09:38:56;7.63;;;3.55;;
53881;SDS011;39794;55.782;37.452;2024-02-26T09:41:27;10.25;;;3.80;;
53881;SDS011;39794;55.782;37.452;2024-02-26T09:43:58;12.48;;;5.50;;
53881;SDS011;39794;55.782;37.452;2024-02-26T09:46:27;9.73;;;3.55;;
53881;SDS011;39794;55.782;37.452;2024-02-26T09:48:55;8.30;;;3.88;;
53881;SDS011;39794;55.782;37.452;2024-02-26T09:51:24;8.27;;;4.10;;
53881;SDS011;39794;55.782;37.452;2024-02-26T09:53:54;6.97;;;3.58;;
53881;SDS011;39794;55.782;37.452;2024-02-26T09:56:23;7.90;;;3.55;;
53881;SDS011;39794;55.782;37.452;2024-02-26T09:58:52;8.85;;;3.40;;
53881;SDS011;39794;55.782;37.452;2024-02-26T10:01:23;7.72;;;3.40;;
53881;SDS011;39794;55.782;37.452;2024-02-26T10:03:54;7.40;;;3.58;;
53881;SDS011;39794;55.782;37.452;2024-02-26T10:06:24;7.45;;;3.28;;
53881;SDS011;39794;55.782;37.452;2024-02-26T10:08:55;9.15;;;3.70;;
53881;SDS011;39794;55.782;37.452;2024-02-26T10:11:25;7.93;;;3.20;;
53881;SDS011;39794;55.782;37.452;2024-02-26T10:13:55;5.35;;;2.72;;
53881;SDS011;39794;55.782;37.452;2024-02-26T10:16:25;6.70;;;3.22;;
53881;SDS011;39794;55.782;37.452;2024-02-26T10:18:54;9.95;;;3.67;;
53881;SDS011;39794;55.782;37.452;2024-02-26T10:21:26;5.85;;;3.47;;
53881;SDS011;39794;55.782;37.452;2024-02-26T10:23:55;7.20;;;3.35;;
53881;SDS011;39794;55.782;37.452;2024-02-26T10:26:24;7.55;;;3.67;;
53881;SDS011;39794;55.782;37.452;2024-02-26T10:28:54;5.25;;;3.47;;
53881;SDS011;39794;55.782;37.452;2024-02-26T10:31:29;5.35;;;3.42;;
53881;SDS011;39794;55.782;37.452;2024-02-26T10:33:58;10.65;;;3.75;;
53881;SDS011;39794;55.782;37.452;2024-02-26T10:36:33;7.10;;;3.30;;
53881;SDS011;39794;55.782;37.452;2024-02-26T10:39:17;5.55;;;2.75;;
53881;SDS011;39794;55.782;37.452;2024-02-26T10:41:46;8.07;;;4.47;;
53881;SDS011;39794;55.782;37.452;2024-02-26T10:44:14;9.30;;;3.63;;
53881;SDS011;39794;55.782;37.452;2024-02-26T10:46:47;13.00;;;4.60;;
53881;SDS011;39794;55.782;37.452;2024-02-26T10:49:17;6.63;;;3.75;;
53881;SDS011;39794;55.782;37.452;2024-02-26T10:51:51;8.18;;;3.58;;
53881;SDS011;39794;55.782;37.452;2024-02-26T10:54:23;12.10;;;4.05;;
53881;SDS011;39794;55.782;37.452;2024-02-26T10:56:54;7.30;;;3.53;;
53881;SDS011;39794;55.782;37.452;2024-02-26T10:59:24;10.93;;;4.07;;
53881;SDS011;39794;55.782;37.452;2024-02-26T11:01:54;8.27;;;3.55;;
53881;SDS011;39794;55.782;37.452;2024-02-26T11:04:23;12.93;;;4.00;;
53881;SDS011;39794;55.782;37.452;2024-02-26T11:06:54;9.38;;;3.97;;
53881;SDS011;39794;55.782;37.452;2024-02-26T11:09:25;8.43;;;3.95;;
53881;SDS011;39794;55.782;37.452;2024-02-26T11:11:54;6.25;;;3.95;;
53881;SDS011;39794;55.782;37.452;2024-02-26T11:14:23;7.90;;;3.95;;
53881;SDS011;39794;55.782;37.452;2024-02-26T11:16:55;8.82;;;3.88;;
53881;SDS011;39794;55.782;37.452;2024-02-26T11:19:24;8.90;;;4.00;;
53881;SDS011;39794;55.782;37.452;2024-02-26T11:21:53;4.85;;;3.42;;
53881;SDS011;39794;55.782;37.452;2024-02-26T11:24:21;7.80;;;3.47;;
53881;SDS011;39794;55.782;37.452;2024-02-26T11:26:50;12.32;;;4.40;;
53881;SDS011;39794;55.782;37.452;2024-02-26T11:29:26;8.95;;;3.83;;
53881;SDS011;39794;55.782;37.452;2024-02-26T11:31:58;8.55;;;3.58;;
53881;SDS011;39794;55.782;37.452;2024-02-26T11:34:27;11.25;;;5.03;;
53881;SDS011;39794;55.782;37.452;2024-02-26T11:36:56;10.52;;;4.20;;
53881;SDS011;39794;55.782;37.452;2024-02-26T11:39:25;7.55;;;4.28;;
53881;SDS011;39794;55.782;37.452;2024-02-26T11:41:54;9.23;;;3.80;;
53881;SDS011;39794;55.782;37.452;2024-02-26T11:44:29;9.98;;;4.47;;
53881;SDS011;39794;55.782;37.452;2024-02-26T11:46:59;9.05;;;3.55;;
53881;SDS011;39794;55.782;37.452;2024-02-26T11:49:37;13.35;;;3.75;;
53881;SDS011;39794;55.782;37.452;2024-02-26T11:52:07;13.15;;;3.95;;
53881;SDS011;39794;55.782;37.452;2024-02-26T11:54:38;7.03;;;4.00;;
53881;SDS011;39794;55.782;37.452;2024-02-26T11:57:20;12.63;;;3.97;;
53881;SDS011;39794;55.782;37.452;2024-02-26T11:59:49;8.05;;;4.22;;
53881;SDS011;39794;55.782;37.452;2024-02-26T12:02:41;13.00;;;4.60;;
53881;SDS011;39794;55.782;37.452;2024-02-26T12:05:14;8.77;;;4.65;;
53881;SDS011;39794;55.782;37.452;2024-02-26T12:07:44;15.65;;;4.20;;
53881;SDS011;39794;55.782;37.452;2024-02-26T12:10:20;9.60;;;4.15;;
53881;SDS011;39794;55.782;37.452;2024-02-26T12:12:53;8.75;;;4.30;;
53881;SDS011;39794;55.782;37.452;2024-02-26T12:15:23;8.40;;;3.83;;
53881;SDS011;39794;55.782;37.452;2024-02-26T12:17:54;10.30;;;4.38;;
53881;SDS011;39794;55.782;37.452;2024-02-26T12:20:22;11.25;;;4.47;;
53881;SDS011;39794;55.782;37.452;2024-02-26T12:22:51;11.75;;;4.00;;
53881;SDS011;39794;55.782;37.452;2024-02-26T12:25:23;10.85;;;4.22;;
53881;SDS011;39794;55.782;37.452;2024-02-26T12:27:53;7.18;;;3.95;;
53881;SDS011;39794;55.782;37.452;2024-02-26T12:30:22;11.82;;;4.65;;
53881;SDS011;39794;55.782;37.452;2024-02-26T12:32:53;10.57;;;4.57;;
53881;SDS011;39794;55.782;37.452;2024-02-26T12:35:24;11.20;;;3.80;;
53881;SDS011;39794;55.782;37.452;2024-02-26T12:37:52;7.97;;;2.92;;
53881;SDS011;39794;55.782;37.452;2024-02-26T12:40:21;6.35;;;3.67;;
53881;SDS011;39794;55.782;37.452;2024-02-26T12:42:50;8.60;;;3.85;;
53881;SDS011;39794;55.782;37.452;2024-02-26T12:45:20;7.07;;;3.25;;
53881;SDS011;39794;55.782;37.452;2024-02-26T12:47:49;9.30;;;4.07;;
53881;SDS011;39794;55.782;37.452;2024-02-26T12:50:19;9.13;;;3.72;;
53881;SDS011;39794;55.782;37.452;2024-02-26T12:52:48;7.50;;;3.33;;
53881;SDS011;39794;55.782;37.452;2024-02-26T12:55:18;10.77;;;4.07;;
53881;SDS011;39794;55.782;37.452;2024-02-26T12:57:48;7.10;;;3.17;;
53881;SDS011;39794;55.782;37.452;2024-02-26T13:00:19;6.30;;;3.45;;
53881;SDS011;39794;55.782;37.452;2024-02-26T13:02:50;10.02;;;3.63;;
53881;SDS011;39794;55.782;37.452;2024-02-26T13:05:20;8.77;;;3.70;;
53881;SDS011;39794;55.782;37.452;2024-02-26T13:07:49;7.15;;;3.40;;
53881;SDS011;39794;55.782;37.452;2024-02-26T13:10:20;9.63;;;4.00;;
53881;SDS011;39794;55.782;37.452;2024-02-26T13:12:49;8.90;;;4.13;;
53881;SDS011;39794;55.782;37.452;2024-02-26T13:15:18;7.85;;;3.92;;
53881;SDS011;39794;55.782;37.452;2024-02-26T13:17:48;8.05;;;3.72;;
53881;SDS011;39794;55.782;37.452;2024-02-26T13:20:26;7.97;;;4.13;;
53881;SDS011;39794;55.782;37.452;2024-02-26T13:23:02;13.27;;;4.20;;
53881;SDS011;39794;55.782;37.452;2024-02-26T13:25:32;9.98;;;3.78;;
53881;SDS011;39794;55.782;37.452;2024-02-26T13:28:06;14.38;;;4.00;;
53881;SDS011;39794;55.782;37.452;2024-02-26T13:30:35;12.15;;;4.28;;
53881;SDS011;39794;55.782;37.452;2024-02-26T13:33:07;7.63;;;3.72;;
53881;SDS011;39794;55.782;37.452;2024-02-26T13:35:38;13.70;;;3.90;;
53881;SDS011;39794;55.782;37.452;2024-02-26T13:38:07;9.90;;;3.42;;
53881;SDS011;39794;55.782;37.452;2024-02-26T13:40:35;11.63;;;3.75;;
53881;SDS011;39794;55.782;37.452;2024-02-26T13:43:04;9.52;;;3.85;;
53881;SDS011;39794;55.782;37.452;2024-02-26T13:45:33;9.15;;;3.60;;
53881;SDS011;39794;55.782;37.452;2024-02-26T13:48:06;8.70;;;3.38;;
53881;SDS011;39794;55.782;37.452;2024-02-26T13:50:38;6.32;;;3.78;;
53881;SDS011;39794;55.782;37.452;2024-02-26T13:53:07;9.57;;;3.22;;
53881;SDS011;39794;55.782;37.452;2024-02-26T13:55:35;9.85;;;3.38;;
53881;SDS011;39794;55.782;37.452;2024-02-26T13:58:04;8.45;;;3.53;;
53881;SDS011;39794;55.782;37.452;2024-02-26T14:00:33;9.00;;;3.60;;
53881;SDS011;39794;55.782;37.452;2024-02-26T14:03:02;10.60;;;3.47;;
53881;SDS011;39794;55.782;37.452;2024-02-26T14:05:31;9.35;;;3.28;;
53881;SDS011;39794;55.782;37.452;2024-02-26T14:08:01;9.93;;;3.53;;
53881;SDS011;39794;55.782;37.452;2024-02-26T14:10:30;5.95;;;3.00;;
53881;SDS011;39794;55.782;37.452;2024-02-26T14:12:59;7.50;;;3.10;;
53881;SDS011;39794;55.782;37.452;2024-02-26T14:15:27;8.65;;;2.90;;
53881;SDS011;39794;55.782;37.452;2024-02-26T14:17:56;10.55;;;3.55;;
53881;SDS011;39794;55.782;37.452;2024-02-26T14:20:25;6.78;;;3.35;;
53881;SDS011;39794;55.782;37.452;2024-02-26T14:22:54;4.65;;;2.55;;
53881;SDS011;39794;55.782;37.452;2024-02-26T14:25:24;6.10;;;2.60;;
53881;SDS011;39794;55.782;37.452;2024-02-26T14:27:56;8.00;;;2.92;;
53881;SDS011;39794;55.782;37.452;2024-02-26T14:30:26;6.20;;;3.03;;
53881;SDS011;39794;55.782;37.452;2024-02-26T14:32:54;5.90;;;2.35;;
53881;SDS011;39794;55.782;37.452;2024-02-26T14:35:23;10.30;;;3.00;;
53881;SDS011;39794;55.782;37.452;2024-02-26T14:37:53;7.70;;;2.83;;
53881;SDS011;39794;55.782;37.452;2024-02-26T14:40:21;6.25;;;2.83;;
53881;SDS011;39794;55.782;37.452;2024-02-26T14:42:51;7.57;;;3.10;;
53881;SDS011;39794;55.782;37.452;2024-02-26T14:45:20;8.10;;;3.03;;
53881;SDS011;39794;55.782;37.452;2024-02-26T14:47:49;5.13;;;3.00;;